createdAt,value
2023-02-01T00:02:15.525Z,101441.66
2023-02-01T00:04:45.433Z,101452.13
2023-02-01T00:07:15.273Z,101451.22
2023-02-01T00:09:45.080Z,101446.06
2023-02-01T00:12:17.454Z,101446.16
2023-02-01T00:14:47.188Z,101441.81
2023-02-01T00:17:16.949Z,101442.81
2023-02-01T00:19:46.703Z,101456.78
2023-02-01T00:22:16.481Z,101441.09
2023-02-01T00:24:46.240Z,101441.09
2023-02-01T00:27:21.376Z,101441.03
2023-02-01T00:29:51.567Z,101432.25
2023-02-01T00:32:21.358Z,101426.13
2023-02-01T00:34:51.151Z,101441.09
2023-02-01T00:37:20.976Z,101435.88
2023-02-01T00:39:51.426Z,101428.13
2023-02-01T00:42:23.793Z,101440.38
2023-02-01T00:44:53.548Z,101432.53
2023-02-01T00:47:23.323Z,101426.50
2023-02-01T00:49:53.123Z,101422.97
2023-02-01T00:52:22.899Z,101429.13
2023-02-01T00:54:52.707Z,101426.50
2023-02-01T00:57:25.095Z,101414.31
2023-02-01T00:59:54.928Z,101418.72
2023-02-01T01:02:24.708Z,101407.38
2023-02-01T01:04:54.600Z,101409.97
2023-02-01T01:07:24.385Z,101416.94
2023-02-01T01:09:54.154Z,101410.88
2023-02-01T01:12:26.535Z,101406.66
2023-02-01T01:14:56.310Z,101403.84
2023-02-01T01:17:26.100Z,101401.41
2023-02-01T01:19:57.218Z,101394.47
2023-02-01T01:22:28.780Z,101392.72
2023-02-01T01:24:58.544Z,101386.72
2023-02-01T01:27:30.931Z,101382.38
2023-02-01T01:30:00.715Z,101385.72
2023-02-01T01:32:30.476Z,101386.53
2023-02-01T01:35:00.259Z,101373.25
2023-02-01T01:37:30.067Z,101364.53
2023-02-01T01:40:01.325Z,101361.75
2023-02-01T01:42:33.799Z,101366.88
2023-02-01T01:45:07.329Z,101370.31
2023-02-01T01:47:40.984Z,101370.16
2023-02-01T01:50:14.058Z,101360.41
2023-02-01T01:52:48.365Z,101364.75
2023-02-01T01:55:20.803Z,101360.25
2023-02-01T01:57:59.439Z,101356.81
2023-02-01T02:00:29.598Z,101353.22
2023-02-01T02:03:04.861Z,101344.56
2023-02-01T02:05:34.798Z,101344.47
2023-02-01T02:08:04.926Z,101342.69
2023-02-01T02:10:48.056Z,101336.53
2023-02-01T02:13:21.842Z,101332.91
2023-02-01T02:16:05.833Z,101330.22
2023-02-01T02:18:42.756Z,101330.97
2023-02-01T02:21:21.575Z,101326.53
2023-02-01T02:24:18.134Z,101321.22
2023-02-01T02:27:28.126Z,101316.72
2023-02-01T02:30:35.424Z,101308.78
2023-02-01T02:33:37.555Z,101306.13
2023-02-01T02:36:14.068Z,101286.09
2023-02-01T02:38:53.322Z,101286.97
2023-02-01T02:41:42.211Z,101285.38
2023-02-01T02:44:30.322Z,101267.84
2023-02-01T02:47:20.092Z,101280.13
2023-02-01T02:50:08.991Z,101281.19
2023-02-01T02:52:56.259Z,101284.69
2023-02-01T02:55:27.241Z,101292.53
2023-02-01T02:58:11.337Z,101292.53
2023-02-01T03:00:54.770Z,101283.91
2023-02-01T03:03:37.027Z,101270.00
2023-02-01T03:06:17.747Z,101271.81
2023-02-01T03:08:47.625Z,101268.22
2023-02-01T03:11:19.590Z,101267.50
2023-02-01T03:13:52.676Z,101252.69
2023-02-01T03:16:27.567Z,101251.97
2023-02-01T03:19:01.819Z,101251.06
2023-02-01T03:21:39.383Z,101248.63
2023-02-01T03:24:14.607Z,101246.00
2023-02-01T03:26:50.256Z,101249.59
2023-02-01T03:29:25.397Z,101244.53
2023-02-01T03:31:55.269Z,101227.06
2023-02-01T03:34:25.763Z,101224.44
2023-02-01T03:37:04.385Z,101241.13
2023-02-01T03:39:38.667Z,101231.47
2023-02-01T03:42:13.529Z,101210.66
2023-02-01T03:44:49.377Z,101217.34
2023-02-01T03:47:23.760Z,101207.41
2023-02-01T03:49:58.769Z,101233.41
2023-02-01T03:52:35.807Z,101241.97
2023-02-01T03:55:06.184Z,101237.63
2023-02-01T03:57:38.691Z,101228.91
2023-02-01T04:00:12.860Z,101233.25
2023-02-01T04:02:42.714Z,101235.03
2023-02-01T04:05:13.120Z,101231.63
2023-02-01T04:07:45.533Z,101230.78
2023-02-01T04:10:19.312Z,101225.66
2023-02-01T04:12:49.504Z,101238.78
2023-02-01T04:15:19.443Z,101217.19
2023-02-01T04:17:49.241Z,101228.59
2023-02-01T04:20:19.719Z,101213.72
2023-02-01T04:22:52.261Z,101219.84
2023-02-01T04:25:22.091Z,101233.03
2023-02-01T04:27:51.895Z,101239.00
2023-02-01T04:30:22.239Z,101205.78
2023-02-01T04:32:52.292Z,101216.25
2023-02-01T04:35:23.089Z,101212.84
2023-02-01T04:37:55.532Z,101213.63
2023-02-01T04:40:25.628Z,101196.97
2023-02-01T04:42:55.606Z,101222.31
2023-02-01T04:45:25.375Z,101212.66
2023-02-01T04:47:55.165Z,101209.34
2023-02-01T04:50:25.333Z,101213.84
2023-02-01T04:52:57.771Z,101200.75
2023-02-01T04:55:27.554Z,101197.31
2023-02-01T04:57:57.780Z,101189.38
2023-02-01T05:00:27.669Z,101203.28
2023-02-01T05:02:57.664Z,101194.69
2023-02-01T05:05:27.500Z,101202.53
2023-02-01T05:08:00.214Z,101201.81
2023-02-01T05:10:30.049Z,101186.22
2023-02-01T05:13:12.331Z,101198.38
2023-02-01T05:15:42.159Z,101204.53
2023-02-01T05:18:12.383Z,101212.38
2023-02-01T05:20:42.290Z,101210.66
2023-02-01T05:23:14.788Z,101224.59
2023-02-01T05:25:44.613Z,101220.38
2023-02-01T05:28:14.427Z,101230.88
2023-02-01T05:30:44.356Z,101234.50
2023-02-01T05:33:14.203Z,101224.19
2023-02-01T05:35:44.122Z,101237.38
2023-02-01T05:38:16.614Z,101220.03
2023-02-01T05:40:50.703Z,101216.59
2023-02-01T05:43:20.547Z,101226.25
2023-02-01T05:45:50.309Z,101222.72
2023-02-01T05:48:20.163Z,101222.81
2023-02-01T05:50:49.969Z,101215.81
2023-02-01T05:53:22.511Z,101231.41
2023-02-01T05:55:52.312Z,101233.84
2023-02-01T05:58:22.081Z,101214.72
2023-02-01T06:00:51.863Z,101204.19
2023-02-01T06:03:21.772Z,101203.22
2023-02-01T06:05:52.116Z,101226.75
2023-02-01T06:08:25.913Z,101218.97
2023-02-01T06:11:01.598Z,101205.00
2023-02-01T06:13:34.179Z,101213.66
2023-02-01T06:16:05.954Z,101216.28
2023-02-01T06:18:35.776Z,101218.91
2023-02-01T06:21:06.242Z,101221.69
2023-02-01T06:23:38.691Z,101226.91
2023-02-01T06:26:11.509Z,101227.91
2023-02-01T06:28:41.275Z,101231.50
2023-02-01T06:31:11.376Z,101222.00
2023-02-01T06:33:41.632Z,101231.66
2023-02-01T06:36:16.430Z,101234.34
2023-02-01T06:38:48.810Z,101228.16
2023-02-01T06:41:18.828Z,101234.28
2023-02-01T06:43:48.894Z,101220.31
2023-02-01T06:46:19.075Z,101222.09
2023-02-01T06:48:50.450Z,101223.88
2023-02-01T06:51:26.279Z,101237.78
2023-02-01T06:53:58.671Z,101244.88
2023-02-01T06:56:28.740Z,101243.16
2023-02-01T06:58:58.663Z,101241.44
2023-02-01T07:01:28.453Z,101240.41
2023-02-01T07:03:58.214Z,101238.66
2023-02-01T07:06:28.251Z,101239.50
2023-02-01T07:09:01.645Z,101253.38
2023-02-01T07:11:31.777Z,101249.97
2023-02-01T07:14:01.985Z,101255.09
2023-02-01T07:16:32.376Z,101246.47
2023-02-01T07:19:02.794Z,101246.63
2023-02-01T07:21:32.587Z,101241.38
2023-02-01T07:24:05.017Z,101245.88
2023-02-01T07:26:34.844Z,101241.63
2023-02-01T07:29:04.661Z,101244.25
2023-02-01T07:31:34.430Z,101247.75
2023-02-01T07:34:04.231Z,101244.31
2023-02-01T07:36:35.472Z,101245.25
2023-02-01T07:39:08.129Z,101256.50
2023-02-01T07:41:37.935Z,101237.19
2023-02-01T07:44:08.072Z,101263.34
2023-02-01T07:46:37.879Z,101265.09
2023-02-01T07:49:07.663Z,101261.56
2023-02-01T07:51:37.444Z,101261.56
2023-02-01T07:54:09.987Z,101271.22
2023-02-01T07:56:39.759Z,101265.97
2023-02-01T07:59:09.522Z,101276.44
2023-02-01T08:01:39.367Z,101267.84
2023-02-01T08:04:09.170Z,101266.16
2023-02-01T08:06:39.007Z,101264.44
2023-02-01T08:09:12.030Z,101259.13
2023-02-01T08:11:41.983Z,101253.00
2023-02-01T08:14:11.808Z,101269.56
2023-02-01T08:16:41.675Z,101269.69
2023-02-01T08:19:11.501Z,101274.03
2023-02-01T08:21:41.302Z,101271.47
2023-02-01T08:24:14.481Z,101264.59
2023-02-01T08:26:44.286Z,101246.19
2023-02-01T08:29:14.991Z,101248.75
2023-02-01T08:31:44.907Z,101247.03
2023-02-01T08:34:14.699Z,101251.44
2023-02-01T08:36:44.745Z,101235.72
2023-02-01T08:39:17.269Z,101233.09
2023-02-01T08:42:07.075Z,101244.50
2023-02-01T08:44:37.982Z,101233.22
2023-02-01T08:47:07.855Z,101227.97
2023-02-01T08:49:37.636Z,101235.00
2023-02-01T08:52:15.688Z,101234.09
2023-02-01T08:54:48.655Z,101232.31
2023-02-01T08:57:18.672Z,101220.97
2023-02-01T08:59:48.512Z,101223.47
2023-02-01T09:02:19.781Z,101206.00
2023-02-01T09:04:49.600Z,101192.00
2023-02-01T09:07:19.416Z,101217.19
2023-02-01T09:09:51.931Z,101200.56
2023-02-01T09:12:21.795Z,101202.47
2023-02-01T09:14:51.649Z,101199.84
2023-02-01T09:17:21.470Z,101191.19
2023-02-01T09:19:51.280Z,101194.69
2023-02-01T09:22:21.244Z,101193.06
2023-02-01T09:24:55.114Z,101183.50
2023-02-01T09:27:25.743Z,101164.28
2023-02-01T09:29:56.272Z,101176.53
2023-02-01T09:32:27.085Z,101175.91
2023-02-01T09:34:57.769Z,101168.19
2023-02-01T09:37:27.561Z,101165.59
2023-02-01T09:39:59.962Z,101145.47
2023-02-01T09:42:49.174Z,101149.72
2023-02-01T09:45:25.790Z,101139.19
2023-02-01T09:47:59.607Z,101123.56
2023-02-01T09:50:38.468Z,101141.06
2023-02-01T09:53:16.014Z,101132.22
2023-02-01T09:55:51.211Z,101127.66
2023-02-01T09:58:26.722Z,101110.16
2023-02-01T10:00:58.622Z,101126.53
2023-02-01T10:03:32.464Z,101110.66
2023-02-01T10:06:20.421Z,101104.28
2023-02-01T10:09:08.299Z,101119.78
2023-02-01T10:11:55.620Z,101107.34
2023-02-01T10:14:44.199Z,101103.84
2023-02-01T10:17:24.112Z,101118.53
2023-02-01T10:20:01.973Z,101115.09
2023-02-01T10:23:10.273Z,101105.63
2023-02-01T10:25:39.621Z,101112.72
2023-02-01T10:28:19.878Z,101107.75
2023-02-01T10:30:51.710Z,101106.84
2023-02-01T10:33:25.922Z,101100.13
2023-02-01T10:35:59.495Z,101118.59
2023-02-01T10:38:31.811Z,101118.84
2023-02-01T10:41:06.891Z,101113.91
2023-02-01T10:43:40.377Z,101107.19
2023-02-01T10:46:11.943Z,101120.50
2023-02-01T10:48:42.749Z,101118.13
2023-02-01T10:51:19.850Z,101112.31
2023-02-01T10:53:56.837Z,101127.44
2023-02-01T10:56:29.753Z,101121.53
2023-02-01T10:59:08.526Z,101120.88
2023-02-01T11:01:43.100Z,101114.13
2023-02-01T11:04:15.008Z,101169.34
2023-02-01T11:06:47.979Z,101219.75
2023-02-01T11:09:25.006Z,101201.47
2023-02-01T11:12:01.258Z,101193.94
2023-02-01T11:14:41.928Z,101182.50
2023-02-01T11:17:29.451Z,101185.75
2023-02-01T11:20:03.974Z,101189.59
2023-02-01T11:22:33.997Z,101208.69
2023-02-01T11:25:11.516Z,101195.13
2023-02-01T11:27:53.126Z,101196.38
2023-02-01T11:30:36.811Z,101186.56
2023-02-01T11:33:09.204Z,101194.28
2023-02-01T11:35:42.771Z,101178.63
2023-02-01T11:38:24.524Z,101176.75
2023-02-01T11:40:54.485Z,101173.41
2023-02-01T11:43:28.613Z,101182.06
2023-02-01T11:46:03.199Z,101160.19
2023-02-01T11:48:34.941Z,101188.56
2023-02-01T11:51:28.688Z,101182.44
2023-02-01T11:54:14.527Z,101192.94
2023-02-01T11:56:51.822Z,101183.69
2023-02-01T11:59:40.975Z,101184.06
2023-02-01T12:02:46.763Z,101189.44
2023-02-01T12:05:35.684Z,101185.50
2023-02-01T12:08:26.680Z,101179.81
2023-02-01T12:11:11.762Z,101177.41
2023-02-01T12:13:56.134Z,101154.53
2023-02-01T12:16:35.680Z,101159.72
2023-02-01T12:19:27.520Z,101159.00
2023-02-01T12:22:08.135Z,101155.44
2023-02-01T12:25:16.206Z,101153.81
2023-02-01T12:28:07.232Z,101157.25
2023-02-01T12:30:52.045Z,101164.03
2023-02-01T12:33:33.038Z,101160.34
2023-02-01T12:36:19.975Z,101161.97
2023-02-01T12:38:57.634Z,101149.53
2023-02-01T12:41:46.965Z,101149.13
2023-02-01T12:44:38.821Z,101154.91
2023-02-01T12:47:15.766Z,101166.50
2023-02-01T12:49:52.922Z,101150.28
2023-02-01T12:52:34.541Z,101158.28
2023-02-01T12:55:11.308Z,101155.91
2023-02-01T12:57:45.403Z,101156.94
2023-02-01T13:00:24.929Z,101160.69
2023-02-01T13:03:06.258Z,101159.03
2023-02-01T13:05:48.132Z,101153.88
2023-02-01T13:08:26.513Z,101152.31
2023-02-01T13:11:04.707Z,101149.78
2023-02-01T13:13:41.570Z,101157.81
2023-02-01T13:16:19.397Z,101153.44
2023-02-01T13:18:54.191Z,101164.03
2023-02-01T13:21:28.185Z,101170.25
2023-02-01T13:24:01.859Z,101180.75
2023-02-01T13:26:31.709Z,101180.88
2023-02-01T13:29:05.625Z,101175.66
2023-02-01T13:32:05.277Z,101167.94
2023-02-01T13:35:07.364Z,101182.84
2023-02-01T13:38:00.383Z,101179.25
2023-02-01T13:40:45.843Z,101186.22
2023-02-01T13:43:20.200Z,101198.41
2023-02-01T13:45:53.464Z,101197.50
2023-02-01T13:48:28.105Z,101188.09
2023-02-01T13:51:00.322Z,101185.59
2023-02-01T13:53:34.533Z,101188.38
2023-02-01T13:56:12.801Z,101195.28
2023-02-01T13:58:44.923Z,101186.50
2023-02-01T14:01:38.068Z,101192.81
2023-02-01T14:04:10.568Z,101195.44
2023-02-01T14:06:46.475Z,101207.69
2023-02-01T14:09:38.254Z,101185.94
2023-02-01T14:12:37.959Z,101184.19
2023-02-01T14:15:29.750Z,101208.53
2023-02-01T14:17:59.950Z,101206.72
2023-02-01T14:20:57.174Z,101202.41
2023-02-01T14:23:29.286Z,101201.31
2023-02-01T14:26:24.639Z,101210.06
2023-02-01T14:29:02.450Z,101194.44
2023-02-01T14:32:00.721Z,101230.28
2023-02-01T14:34:44.182Z,101227.66
2023-02-01T14:37:27.290Z,101228.50
2023-02-01T14:40:02.172Z,101226.78
2023-02-01T14:42:42.689Z,101232.13
2023-02-01T14:45:54.808Z,101220.13
2023-02-01T14:48:52.015Z,101220.00
2023-02-01T14:51:23.119Z,101230.47
2023-02-01T14:53:54.510Z,101244.38
2023-02-01T14:56:25.766Z,101242.59
2023-02-01T14:59:01.061Z,101239.75
2023-02-01T15:01:32.807Z,101242.28
2023-02-01T15:04:09.255Z,101240.56
2023-02-01T15:06:42.546Z,101243.91
2023-02-01T15:09:15.974Z,101245.59
2023-02-01T15:12:00.176Z,101263.91
2023-02-01T15:14:31.300Z,101254.25
2023-02-01T15:17:01.143Z,101257.84
2023-02-01T15:19:34.449Z,101263.97
2023-02-01T15:22:04.744Z,101260.56
2023-02-01T15:24:35.587Z,101269.41
2023-02-01T15:27:09.567Z,101257.09
2023-02-01T15:29:39.560Z,101259.63
2023-02-01T15:32:09.419Z,101258.69
2023-02-01T15:34:52.107Z,101271.69
2023-02-01T15:37:24.738Z,101271.41
2023-02-01T15:40:23.347Z,101277.28
2023-02-01T15:42:57.495Z,101284.09
2023-02-01T15:45:31.329Z,101290.97
2023-02-01T15:48:02.910Z,101286.53
2023-02-01T15:50:36.060Z,101283.75
2023-02-01T15:53:06.686Z,101294.25
2023-02-01T15:55:42.986Z,101293.25
2023-02-01T15:58:21.834Z,101288.75
2023-02-01T16:00:54.453Z,101300.06
2023-02-01T16:03:37.951Z,101313.16
2023-02-01T16:06:13.131Z,101318.25
2023-02-01T16:08:55.002Z,101313.00
2023-02-01T16:11:31.689Z,101326.91
2023-02-01T16:14:02.003Z,101328.53
2023-02-01T16:16:33.217Z,101324.03
2023-02-01T16:19:03.075Z,101332.72
2023-02-01T16:21:35.475Z,101344.94
2023-02-01T16:24:06.923Z,101322.09
2023-02-01T16:26:38.624Z,101343.78
2023-02-01T16:29:09.787Z,101327.34
2023-02-01T16:31:42.817Z,101345.66
2023-02-01T16:34:18.119Z,101350.81
2023-02-01T16:36:53.113Z,101358.59
2023-02-01T16:39:23.663Z,101358.59
2023-02-01T16:41:53.920Z,101356.88
2023-02-01T16:44:23.733Z,101357.66
2023-02-01T16:46:53.541Z,101372.50
2023-02-01T16:49:25.141Z,101370.69
2023-02-01T16:52:01.709Z,101363.66
2023-02-01T16:54:31.521Z,101376.56
2023-02-01T16:57:01.325Z,101389.66
2023-02-01T16:59:31.206Z,101382.81
2023-02-01T17:02:00.987Z,101393.13
2023-02-01T17:04:30.893Z,101394.00
2023-02-01T17:07:09.556Z,101394.75
2023-02-01T17:09:39.876Z,101396.38
2023-02-01T17:12:10.303Z,101405.06
2023-02-01T17:14:43.288Z,101409.41
2023-02-01T17:17:13.780Z,101406.69
2023-02-01T17:19:44.016Z,101401.34
2023-02-01T17:22:16.649Z,101397.78
2023-02-01T17:24:48.764Z,101404.69
2023-02-01T17:27:19.496Z,101404.69
2023-02-01T17:29:49.319Z,101407.31
2023-02-01T17:32:21.507Z,101416.78
2023-02-01T17:34:52.052Z,101431.53
2023-02-01T17:37:27.922Z,101427.94
2023-02-01T17:39:58.033Z,101434.94
2023-02-01T17:42:29.040Z,101433.22
2023-02-01T17:45:00.921Z,101427.19
2023-02-01T17:47:30.830Z,101447.41
2023-02-01T17:50:00.609Z,101440.44
2023-02-01T17:52:33.017Z,101443.16
2023-02-01T17:55:04.848Z,101439.72
2023-02-01T17:57:34.647Z,101426.72
2023-02-01T18:00:04.569Z,101434.59
2023-02-01T18:02:34.425Z,101457.03
2023-02-01T18:05:05.093Z,101458.88
2023-02-01T18:07:37.456Z,101453.78
2023-02-01T18:10:07.867Z,101458.19
2023-02-01T18:12:38.934Z,101462.66
2023-02-01T18:15:30.647Z,101459.44
2023-02-01T18:18:00.843Z,101457.56
2023-02-01T18:20:31.230Z,101468.03
2023-02-01T18:23:04.106Z,101450.59
2023-02-01T18:25:38.829Z,101455.84
2023-02-01T18:28:08.620Z,101464.59
2023-02-01T18:30:38.669Z,101462.16
2023-02-01T18:33:08.553Z,101438.50
2023-02-01T18:35:38.320Z,101455.06
2023-02-01T18:38:11.301Z,101445.47
2023-02-01T18:40:46.512Z,101462.16
2023-02-01T18:43:16.964Z,101462.81
2023-02-01T18:45:48.352Z,101467.06
2023-02-01T18:48:21.423Z,101469.50
2023-02-01T18:50:52.195Z,101464.28
2023-02-01T18:53:27.290Z,101465.00
2023-02-01T18:55:57.350Z,101470.97
2023-02-01T18:58:28.244Z,101466.53
2023-02-01T19:00:59.901Z,101468.34
2023-02-01T19:03:31.057Z,101463.00
2023-02-01T19:06:01.601Z,101471.75
2023-02-01T19:08:34.100Z,101462.13
2023-02-01T19:11:09.400Z,101463.75
2023-02-01T19:13:39.355Z,101471.31
2023-02-01T19:16:10.184Z,101475.59
2023-02-01T19:18:40.987Z,101477.22
2023-02-01T19:21:13.479Z,101481.47
2023-02-01T19:23:45.972Z,101483.09
2023-02-01T19:26:16.680Z,101483.97
2023-02-01T19:28:49.096Z,101492.81
2023-02-01T19:31:20.611Z,101477.94
2023-02-01T19:33:50.500Z,101477.13
2023-02-01T19:36:20.318Z,101477.06
2023-02-01T19:38:52.745Z,101491.94
2023-02-01T19:41:22.883Z,101487.59
2023-02-01T19:43:52.830Z,101494.53
2023-02-01T19:46:22.715Z,101488.31
2023-02-01T19:48:52.552Z,101490.94
2023-02-01T19:51:22.335Z,101494.28
2023-02-01T19:53:54.805Z,101503.94
2023-02-01T19:56:24.574Z,101501.22
2023-02-01T19:58:57.933Z,101498.63
2023-02-01T20:01:26.950Z,101484.63
2023-02-01T20:04:01.726Z,101506.38
2023-02-01T20:06:32.553Z,101510.81
2023-02-01T20:09:05.041Z,101502.22
2023-02-01T20:11:35.050Z,101511.81
2023-02-01T20:14:04.884Z,101517.03
2023-02-01T20:16:34.998Z,101518.66
2023-02-01T20:19:05.211Z,101520.38
2023-02-01T20:21:35.524Z,101523.88
2023-02-01T20:24:09.001Z,101513.25
2023-02-01T20:26:39.888Z,101533.25
2023-02-01T20:29:10.483Z,101544.44
2023-02-01T20:31:40.415Z,101530.47
2023-02-01T20:34:10.566Z,101536.53
2023-02-01T20:36:40.725Z,101551.31
2023-02-01T20:39:13.491Z,101542.56
2023-02-01T20:41:43.822Z,101555.72
2023-02-01T20:44:13.892Z,101555.56
2023-02-01T20:46:43.822Z,101554.75
2023-02-01T20:49:13.768Z,101550.34
2023-02-01T20:51:43.692Z,101543.28
2023-02-01T20:54:16.236Z,101551.94
2023-02-01T20:56:47.690Z,101546.63
2023-02-01T20:59:17.565Z,101545.81
2023-02-01T21:01:54.678Z,101555.28
2023-02-01T21:04:27.659Z,101551.69
2023-02-01T21:06:58.969Z,101554.19
2023-02-01T21:09:40.236Z,101558.53
2023-02-01T21:12:10.378Z,101559.19
2023-02-01T21:14:40.216Z,101561.84
2023-02-01T21:17:10.054Z,101557.63
2023-02-01T21:19:45.631Z,101560.25
2023-02-01T21:22:17.235Z,101548.88
2023-02-01T21:24:50.068Z,101561.13
2023-02-01T21:27:21.225Z,101558.53
2023-02-01T21:29:51.102Z,101559.41
2023-02-01T21:32:21.035Z,101560.06
2023-02-01T21:34:50.888Z,101562.69
2023-02-01T21:37:25.797Z,101557.44
2023-02-01T21:39:59.082Z,101571.44
2023-02-01T21:42:30.759Z,101570.59
2023-02-01T21:45:02.462Z,101574.94
2023-02-01T21:47:32.306Z,101574.88
2023-02-01T21:50:03.831Z,101579.09
2023-02-01T21:52:34.075Z,101593.97
2023-02-01T21:55:07.469Z,101591.28
2023-02-01T21:57:37.939Z,101595.59
2023-02-01T22:00:09.329Z,101605.25
2023-02-01T22:02:39.372Z,101607.75
2023-02-01T22:05:11.333Z,101610.31
2023-02-01T22:07:41.390Z,101619.94
2023-02-01T22:10:15.619Z,101613.81
2023-02-01T22:12:45.509Z,101618.22
2023-02-01T22:15:15.527Z,101612.00
2023-02-01T22:17:45.431Z,101612.00
2023-02-01T22:20:15.785Z,101623.56
2023-02-01T22:22:45.700Z,101625.47
2023-02-01T22:25:18.426Z,101632.47
2023-02-01T22:28:32.442Z,101631.41
2023-02-01T22:30:38.177Z,101637.66
2023-02-01T22:33:08.188Z,101633.19
2023-02-01T22:35:41.058Z,101635.03
2023-02-01T22:38:10.916Z,101639.34
2023-02-01T22:40:43.414Z,101642.94
2023-02-01T22:43:13.872Z,101632.47
2023-02-01T22:45:43.743Z,101642.22
2023-02-01T22:48:13.678Z,101648.28
2023-02-01T22:50:43.577Z,101640.34
2023-02-01T22:53:13.535Z,101648.19
2023-02-01T22:55:45.967Z,101650.78
2023-02-01T22:58:15.831Z,101640.44
2023-02-01T23:00:45.800Z,101653.41
2023-02-01T23:03:15.792Z,101648.19
2023-02-01T23:05:45.691Z,101662.25
2023-02-01T23:08:15.630Z,101656.84
2023-02-01T23:10:48.590Z,101663.16
2023-02-01T23:13:18.370Z,101664.06
2023-02-01T23:15:48.147Z,101672.72
2023-02-01T23:18:17.955Z,101671.81
2023-02-01T23:20:47.805Z,101672.72
2023-02-01T23:23:17.551Z,101679.75
2023-02-01T23:25:55.114Z,101678.06
2023-02-01T23:28:24.873Z,101683.19
2023-02-01T23:30:54.923Z,101677.97
2023-02-01T23:33:26.082Z,101686.63
2023-02-01T23:35:58.410Z,101680.47
2023-02-01T23:38:29.035Z,101681.28
2023-02-01T23:41:08.594Z,101689.84
2023-02-01T23:43:50.779Z,101694.97
2023-02-01T23:46:21.229Z,101694.78
2023-02-01T23:48:52.385Z,101694.72
2023-02-01T23:51:23.302Z,101694.50
2023-02-01T23:53:53.389Z,101704.97
2023-02-01T23:56:28.306Z,101702.34
2023-02-01T23:58:58.233Z,101691.81
